Lentokenttä METAR

 

EFHK - Helsinki/Vantaa
Etäisyys sääasemasta: IKO 36km
Päivitetty: 14/12/2017 14:50
Melko pilvistä
Melko pilvistä
 Tuulen suunta IKA
Tuuli: IKA 8 m/s
Lämpötila: 0°C
Hyytävyys: -6°C
Kastepiste: -3°C
Kosteus: 80%
Ilmanpaine: 995 hPa
Pilvisyys: Melko pilvistä
Näkyvyys: 10 km
Pilviraja: Melko selkeää 518 m
Melko pilvistä 6096 m
2017/12/14 12:50 EFHK 141250Z 12015KT 9999 FEW017 BKN200 M00/M03 Q0995 NOSIG
EETN - Tallinn, Estonia
Etäisyys sääasemasta: EKA 97km
Päivitetty: 14/12/2017 14:50
Melko selkeää
Melko selkeää
 Tuulen suunta KA
Tuuli: KA 6 m/s
Lämpötila: -1°C
Hyytävyys: -7°C
Kastepiste: -4°C
Kosteus: 80%
Ilmanpaine: 995 hPa
Pilvisyys: Melko selkeää
Näkyvyys: 10 km
Pilviraja: Melko selkeää 640 m
2017/12/14 12:50 EETN 141250Z 14012KT 9999 FEW021 M01/M04 Q0995 R08/810295 NOSIG
 
EFTU - Turku
Etäisyys sääasemasta: LLU 119km
Päivitetty: 14/12/2017 14:50
Pilvistä
Pilvistä
 Tuulen suunta KA
Tuuli: KA 6 m/s Puuskatuuli: 11 m/s
Lämpötila: 1°C
Hyytävyys: -4°C
Kastepiste: -2°C
Kosteus: 81%
Ilmanpaine: 991 hPa
Pilvisyys: Pilvistä
Näkyvyys: 10 km
Pilviraja: Melko selkeää 579 m
Melko pilvistä 671 m
Pilvistä 823 m
2017/12/14 12:50 EFTU 141250Z AUTO 13011G21KT 100V160 9999 SCT019/// BKN022/// OVC027/// 01/M02 Q0991
EFLP - Lappeenranta
Etäisyys sääasemasta: IKO 227km
Päivitetty: 14/12/2017 14:50
Melko selkeää
Melko selkeää
 Tuulen suunta KA
Tuuli: KA 3 m/s
Lämpötila: -1°C
Hyytävyys: -4°C
Kastepiste: -3°C
Kosteus: 86%
Ilmanpaine: 1000 hPa
Pilvisyys: Melko selkeää
Näkyvyys: 10 km
Pilviraja: Melko selkeää 366 m
2017/12/14 12:50 EFLP 141250Z AUTO 13005KT 090V170 9999 SCT012 M01/M03 Q1000
 
EFJY - Jyvaskylä
Etäisyys sääasemasta: PKO 253km
Päivitetty: 14/12/2017 14:50
Melko pilvistä
Melko pilvistä
 Tuulen suunta EKA
Tuuli: EKA 5 m/s
Lämpötila: -1°C
Hyytävyys: -7°C
Kastepiste: -4°C
Kosteus: 80%
Ilmanpaine: 996 hPa
Pilvisyys: Melko pilvistä
Näkyvyys: 10 km
Pilviraja: Melko pilvistä 488 m
2017/12/14 12:50 EFJY 141250Z 15010KT 120V200 9999 BKN016 M01/M04 Q0996
EFSA - Savonlinna
Etäisyys sääasemasta: KO 313km
Päivitetty: 14/12/2017 14:50
Melko pilvistä
Melko pilvistä
 Tuulen suunta EKA
Tuuli: EKA 4 m/s
Lämpötila: -1°C
Hyytävyys: -6°C
Kastepiste: -4°C
Kosteus: 80%
Ilmanpaine: 1001 hPa
Pilvisyys: Melko pilvistä
Näkyvyys: 10 km
Pilviraja: Melko pilvistä 518 m
2017/12/14 12:50 EFSA 141250Z AUTO 16008KT 130V220 9999 BKN017 M01/M04 Q1001
 
ESSA - Stockholm/Arlanda, Sweden
Etäisyys sääasemasta: L 363km
Päivitetty: 14/12/2017 14:50
Heikkoa tihkusadetta, Utua, Melko pilvistä
Heikkoa tihkusadetta, Utua, Melko pilvistä
 Tuulen suunta I
Tuuli: I 4 m/s
Lämpötila: 2°C
Hyytävyys: -1°C
Kastepiste: 1°C
Kosteus: 93%
Ilmanpaine: 984 hPa
Yhteenveto: Heikkoa tihkusadetta, Utua
Pilvisyys: Melko pilvistä
Näkyvyys: 7 km
Pilviraja: Melko pilvistä 183 m
2017/12/14 12:50 ESSA 141250Z 10007KT 7000 -DZ BR BKN006 02/01 Q0984 R01L/29//79 R01R/29//80 R08/29//73 TEMPO BKN010
ESGG - Göteborg, Sweden
Etäisyys sääasemasta: LO 900km
Päivitetty: 14/12/2017 14:50
Heikkoa lumisadetta, Pilvistä
Heikkoa lumisadetta, Pilvistä
 Tuulen suunta KO
Tuuli: KO 2 m/s
Lämpötila: 0°C
Kastepiste: -1°C
Kosteus: 93%
Ilmanpaine: 978 hPa
Yhteenveto: Heikkoa lumisadetta
Pilvisyys: Pilvistä
Näkyvyys: 3 km
Pilviraja: Pilvistä 183 m
2017/12/14 12:50 ESGG 141250Z 04003KT 3300 -SN VV006 M00/M01 Q0978 R21/290095
 
ENGM - Oslo, Norway
Etäisyys sääasemasta: L 950km
Päivitetty: 14/12/2017 14:50
Melko pilvistä
Melko pilvistä
 Tuulen suunta PKO
Tuuli: PKO 3 m/s
Lämpötila: -3°C
Hyytävyys: -7°C
Kastepiste: -4°C
Kosteus: 93%
Ilmanpaine: 981 hPa
Pilvisyys: Melko pilvistä
Näkyvyys: 10 km
Pilviraja: Melko selkeää 671 m
Melko pilvistä 1036 m
2017/12/14 12:50 ENGM 141250Z 03006KT 9999 FEW022 BKN034 M03/M04 Q0981 NOSIG